sensor_id;sensor_type;location;lat;lon;timestamp;temperature;humidity
48376;DHT22;34178;50.904;11.560;2023-01-28T00:01:10;2.30;99.90
48376;DHT22;34178;50.904;11.560;2023-01-28T00:03:36;2.30;99.90
48376;DHT22;34178;50.904;11.560;2023-01-28T00:06:10;2.20;99.90
48376;DHT22;34178;50.904;11.560;2023-01-28T00:08:36;2.20;99.90
48376;DHT22;34178;50.904;11.560;2023-01-28T00:11:04;2.20;99.90
48376;DHT22;34178;50.904;11.560;2023-01-28T00:13:31;2.30;99.90
48376;DHT22;34178;50.904;11.560;2023-01-28T00:16:02;2.30;99.90
48376;DHT22;34178;50.904;11.560;2023-01-28T00:18:29;2.20;99.90
48376;DHT22;34178;50.904;11.560;2023-01-28T00:21:00;2.30;99.90
48376;DHT22;34178;50.904;11.560;2023-01-28T00:23:30;2.30;99.90
48376;DHT22;34178;50.904;11.560;2023-01-28T00:26:05;2.30;99.90
48376;DHT22;34178;50.904;11.560;2023-01-28T00:28:31;2.30;99.90
48376;DHT22;34178;50.904;11.560;2023-01-28T00:30:57;2.30;99.90
48376;DHT22;34178;50.904;11.560;2023-01-28T00:33:23;2.30;99.90
48376;DHT22;34178;50.904;11.560;2023-01-28T00:35:57;2.30;99.90
48376;DHT22;34178;50.904;11.560;2023-01-28T00:38:23;2.30;99.90
48376;DHT22;34178;50.904;11.560;2023-01-28T00:40:49;2.30;99.90
48376;DHT22;34178;50.904;11.560;2023-01-28T00:43:14;2.30;99.90
48376;DHT22;34178;50.904;11.560;2023-01-28T00:45:40;2.30;99.90
48376;DHT22;34178;50.904;11.560;2023-01-28T00:48:06;2.30;99.90
48376;DHT22;34178;50.904;11.560;2023-01-28T00:50:31;2.30;99.90
48376;DHT22;34178;50.904;11.560;2023-01-28T00:52:57;2.20;99.90
48376;DHT22;34178;50.904;11.560;2023-01-28T00:55:22;2.20;99.90
48376;DHT22;34178;50.904;11.560;2023-01-28T00:57:48;2.20;99.90
48376;DHT22;34178;50.904;11.560;2023-01-28T01:00:15;2.20;99.90
48376;DHT22;34178;50.904;11.560;2023-01-28T01:02:41;2.20;99.90
48376;DHT22;34178;50.904;11.560;2023-01-28T01:05:07;2.20;99.90
48376;DHT22;34178;50.904;11.560;2023-01-28T01:07:33;2.20;99.90
48376;DHT22;34178;50.904;11.560;2023-01-28T01:10:15;2.20;99.90
48376;DHT22;34178;50.904;11.560;2023-01-28T01:12:41;2.20;99.90
48376;DHT22;34178;50.904;11.560;2023-01-28T01:15:09;2.20;99.90
48376;DHT22;34178;50.904;11.560;2023-01-28T01:17:39;2.20;99.90
48376;DHT22;34178;50.904;11.560;2023-01-28T01:20:07;2.10;99.90
48376;DHT22;34178;50.904;11.560;2023-01-28T01:22:36;2.20;99.90
48376;DHT22;34178;50.904;11.560;2023-01-28T01:25:03;2.20;99.90
48376;DHT22;34178;50.904;11.560;2023-01-28T01:27:30;2.20;99.90
48376;DHT22;34178;50.904;11.560;2023-01-28T01:29:56;2.20;99.90
48376;DHT22;34178;50.904;11.560;2023-01-28T02:32:14;2.10;99.90
48376;DHT22;34178;50.904;11.560;2023-01-28T02:34:50;2.10;99.90
48376;DHT22;34178;50.904;11.560;2023-01-28T02:37:20;2.10;99.90
48376;DHT22;34178;50.904;11.560;2023-01-28T02:39:50;2.10;99.90
48376;DHT22;34178;50.904;11.560;2023-01-28T02:42:22;2.20;99.90
48376;DHT22;34178;50.904;11.560;2023-01-28T02:44:49;2.10;99.90
48376;DHT22;34178;50.904;11.560;2023-01-28T02:47:15;2.00;99.90
48376;DHT22;34178;50.904;11.560;2023-01-28T02:50:06;2.10;99.90
48376;DHT22;34178;50.904;11.560;2023-01-28T02:53:11;2.00;99.90
48376;DHT22;34178;50.904;11.560;2023-01-28T03:02:11;2.10;99.90
48376;DHT22;34178;50.904;11.560;2023-01-28T03:04:56;2.10;99.90
48376;DHT22;34178;50.904;11.560;2023-01-28T03:07:26;2.20;99.90
48376;DHT22;34178;50.904;11.560;2023-01-28T03:09:54;2.20;99.90
48376;DHT22;34178;50.904;11.560;2023-01-28T03:12:25;2.20;99.90
48376;DHT22;34178;50.904;11.560;2023-01-28T03:15:21;2.20;99.90
48376;DHT22;34178;50.904;11.560;2023-01-28T03:18:17;2.10;99.90
48376;DHT22;34178;50.904;11.560;2023-01-28T03:24:39;2.20;99.90
48376;DHT22;34178;50.904;11.560;2023-01-28T03:27:04;2.10;99.90
48376;DHT22;34178;50.904;11.560;2023-01-28T03:29:50;2.00;99.90
48376;DHT22;34178;50.904;11.560;2023-01-28T03:32:38;2.00;99.90
48376;DHT22;34178;50.904;11.560;2023-01-28T03:35:23;2.10;99.90
48376;DHT22;34178;50.904;11.560;2023-01-28T03:38:10;2.10;99.90
48376;DHT22;34178;50.904;11.560;2023-01-28T03:40:59;2.10;99.90
48376;DHT22;34178;50.904;11.560;2023-01-28T03:43:26;2.00;99.90
48376;DHT22;34178;50.904;11.560;2023-01-28T03:45:52;2.00;99.90
48376;DHT22;34178;50.904;11.560;2023-01-28T03:48:21;2.00;99.90
48376;DHT22;34178;50.904;11.560;2023-01-28T03:50:48;2.00;99.90
48376;DHT22;34178;50.904;11.560;2023-01-28T03:53:14;2.00;99.90
48376;DHT22;34178;50.904;11.560;2023-01-28T03:55:41;2.00;99.90
48376;DHT22;34178;50.904;11.560;2023-01-28T03:58:10;2.10;99.90
48376;DHT22;34178;50.904;11.560;2023-01-28T04:00:36;2.00;99.90
48376;DHT22;34178;50.904;11.560;2023-01-28T04:03:07;2.00;99.90
48376;DHT22;34178;50.904;11.560;2023-01-28T04:05:43;2.00;99.90
48376;DHT22;34178;50.904;11.560;2023-01-28T04:08:10;1.90;99.90
48376;DHT22;34178;50.904;11.560;2023-01-28T04:10:40;2.00;99.90
48376;DHT22;34178;50.904;11.560;2023-01-28T04:13:06;1.90;99.90
48376;DHT22;34178;50.904;11.560;2023-01-28T04:15:32;1.90;99.90
48376;DHT22;34178;50.904;11.560;2023-01-28T04:17:58;1.90;99.90
48376;DHT22;34178;50.904;11.560;2023-01-28T04:20:25;1.90;99.90
48376;DHT22;34178;50.904;11.560;2023-01-28T04:22:51;1.80;99.90
48376;DHT22;34178;50.904;11.560;2023-01-28T04:25:16;1.80;99.90
48376;DHT22;34178;50.904;11.560;2023-01-28T04:27:42;1.80;99.90
48376;DHT22;34178;50.904;11.560;2023-01-28T04:30:08;1.80;99.90
48376;DHT22;34178;50.904;11.560;2023-01-28T04:32:34;1.80;99.90
48376;DHT22;34178;50.904;11.560;2023-01-28T04:35:00;1.80;99.90
48376;DHT22;34178;50.904;11.560;2023-01-28T04:37:25;1.80;99.90
48376;DHT22;34178;50.904;11.560;2023-01-28T04:39:51;1.80;99.90
48376;DHT22;34178;50.904;11.560;2023-01-28T04:42:17;1.80;99.90
48376;DHT22;34178;50.904;11.560;2023-01-28T04:44:42;1.80;99.90
48376;DHT22;34178;50.904;11.560;2023-01-28T04:47:08;1.90;99.90
48376;DHT22;34178;50.904;11.560;2023-01-28T04:49:34;1.90;99.90
48376;DHT22;34178;50.904;11.560;2023-01-28T04:51:59;1.90;99.90
48376;DHT22;34178;50.904;11.560;2023-01-28T04:54:25;1.80;99.90
48376;DHT22;34178;50.904;11.560;2023-01-28T04:56:51;1.80;99.90
48376;DHT22;34178;50.904;11.560;2023-01-28T04:59:16;1.90;99.90
48376;DHT22;34178;50.904;11.560;2023-01-28T05:01:42;1.90;99.90
48376;DHT22;34178;50.904;11.560;2023-01-28T05:04:08;1.90;99.90
48376;DHT22;34178;50.904;11.560;2023-01-28T05:06:34;1.90;99.90
48376;DHT22;34178;50.904;11.560;2023-01-28T05:09:00;1.90;99.90
48376;DHT22;34178;50.904;11.560;2023-01-28T05:11:25;1.80;99.90
48376;DHT22;34178;50.904;11.560;2023-01-28T05:13:53;1.80;99.90
48376;DHT22;34178;50.904;11.560;2023-01-28T05:16:19;1.80;99.90
48376;DHT22;34178;50.904;11.560;2023-01-28T05:18:44;1.80;99.90
48376;DHT22;34178;50.904;11.560;2023-01-28T05:21:12;1.80;99.90
48376;DHT22;34178;50.904;11.560;2023-01-28T05:23:38;1.90;99.90
48376;DHT22;34178;50.904;11.560;2023-01-28T05:26:05;1.90;99.90
48376;DHT22;34178;50.904;11.560;2023-01-28T05:28:30;1.90;99.90
48376;DHT22;34178;50.904;11.560;2023-01-28T05:30:56;1.80;99.90
48376;DHT22;34178;50.904;11.560;2023-01-28T05:33:22;1.80;99.90
48376;DHT22;34178;50.904;11.560;2023-01-28T05:35:47;1.80;99.90
48376;DHT22;34178;50.904;11.560;2023-01-28T05:38:14;1.80;99.90
48376;DHT22;34178;50.904;11.560;2023-01-28T05:40:39;1.80;99.90
48376;DHT22;34178;50.904;11.560;2023-01-28T05:43:05;1.80;99.90
48376;DHT22;34178;50.904;11.560;2023-01-28T05:45:31;1.80;99.90
48376;DHT22;34178;50.904;11.560;2023-01-28T05:47:57;1.80;99.90
48376;DHT22;34178;50.904;11.560;2023-01-28T05:50:22;1.80;99.90
48376;DHT22;34178;50.904;11.560;2023-01-28T05:52:48;1.80;99.90
48376;DHT22;34178;50.904;11.560;2023-01-28T05:55:14;1.70;99.90
48376;DHT22;34178;50.904;11.560;2023-01-28T05:57:39;1.70;99.90
48376;DHT22;34178;50.904;11.560;2023-01-28T06:00:05;1.70;99.90
48376;DHT22;34178;50.904;11.560;2023-01-28T06:02:31;1.60;99.90
48376;DHT22;34178;50.904;11.560;2023-01-28T06:04:57;1.60;99.90
48376;DHT22;34178;50.904;11.560;2023-01-28T06:07:23;1.60;99.90
48376;DHT22;34178;50.904;11.560;2023-01-28T06:09:49;1.60;99.90
48376;DHT22;34178;50.904;11.560;2023-01-28T06:12:15;1.60;99.90
48376;DHT22;34178;50.904;11.560;2023-01-28T06:14:41;1.60;99.90
48376;DHT22;34178;50.904;11.560;2023-01-28T06:17:07;1.60;99.90
48376;DHT22;34178;50.904;11.560;2023-01-28T06:19:32;1.60;99.90
48376;DHT22;34178;50.904;11.560;2023-01-28T06:21:58;1.60;99.90
48376;DHT22;34178;50.904;11.560;2023-01-28T06:24:24;1.60;99.90
48376;DHT22;34178;50.904;11.560;2023-01-28T06:26:49;1.60;99.90
48376;DHT22;34178;50.904;11.560;2023-01-28T06:29:15;1.60;99.90
48376;DHT22;34178;50.904;11.560;2023-01-28T06:31:41;1.60;99.90
48376;DHT22;34178;50.904;11.560;2023-01-28T06:34:08;1.60;99.90
48376;DHT22;34178;50.904;11.560;2023-01-28T06:36:35;1.60;99.90
48376;DHT22;34178;50.904;11.560;2023-01-28T06:39:03;1.50;99.90
48376;DHT22;34178;50.904;11.560;2023-01-28T06:41:29;1.50;99.90
48376;DHT22;34178;50.904;11.560;2023-01-28T06:43:55;1.50;99.90
48376;DHT22;34178;50.904;11.560;2023-01-28T06:46:20;1.60;99.90
48376;DHT22;34178;50.904;11.560;2023-01-28T06:48:46;1.60;99.90
48376;DHT22;34178;50.904;11.560;2023-01-28T06:51:12;1.60;99.90
48376;DHT22;34178;50.904;11.560;2023-01-28T06:53:38;1.50;99.90
48376;DHT22;34178;50.904;11.560;2023-01-28T06:56:04;1.50;99.90
48376;DHT22;34178;50.904;11.560;2023-01-28T06:58:29;1.50;99.90
48376;DHT22;34178;50.904;11.560;2023-01-28T07:00:55;1.40;99.90
48376;DHT22;34178;50.904;11.560;2023-01-28T07:03:21;1.40;99.90
48376;DHT22;34178;50.904;11.560;2023-01-28T07:05:46;1.40;99.90
48376;DHT22;34178;50.904;11.560;2023-01-28T07:08:12;1.40;99.90
48376;DHT22;34178;50.904;11.560;2023-01-28T07:10:38;1.40;99.90
48376;DHT22;34178;50.904;11.560;2023-01-28T07:13:04;1.50;99.90
48376;DHT22;34178;50.904;11.560;2023-01-28T07:15:29;1.50;99.90
48376;DHT22;34178;50.904;11.560;2023-01-28T07:17:55;1.50;99.90
48376;DHT22;34178;50.904;11.560;2023-01-28T07:20:21;1.50;99.90
48376;DHT22;34178;50.904;11.560;2023-01-28T07:22:46;1.50;99.90
48376;DHT22;34178;50.904;11.560;2023-01-28T07:25:13;1.50;99.90
48376;DHT22;34178;50.904;11.560;2023-01-28T07:27:44;1.50;99.90
48376;DHT22;34178;50.904;11.560;2023-01-28T07:30:10;1.50;99.90
48376;DHT22;34178;50.904;11.560;2023-01-28T07:32:36;1.50;99.90
48376;DHT22;34178;50.904;11.560;2023-01-28T07:35:02;1.60;99.90
48376;DHT22;34178;50.904;11.560;2023-01-28T07:37:27;1.50;99.90
48376;DHT22;34178;50.904;11.560;2023-01-28T07:39:53;1.50;99.90
48376;DHT22;34178;50.904;11.560;2023-01-28T07:42:19;1.50;99.90
48376;DHT22;34178;50.904;11.560;2023-01-28T07:44:44;1.50;99.90
48376;DHT22;34178;50.904;11.560;2023-01-28T07:47:10;1.50;99.90
48376;DHT22;34178;50.904;11.560;2023-01-28T07:49:36;1.50;99.90
48376;DHT22;34178;50.904;11.560;2023-01-28T07:52:04;1.50;99.90
48376;DHT22;34178;50.904;11.560;2023-01-28T07:54:30;1.50;99.90
48376;DHT22;34178;50.904;11.560;2023-01-28T07:56:56;1.50;99.90
48376;DHT22;34178;50.904;11.560;2023-01-28T07:59:21;1.60;99.90
48376;DHT22;34178;50.904;11.560;2023-01-28T08:01:47;1.60;99.90
48376;DHT22;34178;50.904;11.560;2023-01-28T08:04:13;1.60;99.90
48376;DHT22;34178;50.904;11.560;2023-01-28T08:06:38;1.60;99.90
48376;DHT22;34178;50.904;11.560;2023-01-28T08:09:05;1.50;99.90
48376;DHT22;34178;50.904;11.560;2023-01-28T08:11:33;1.50;99.90
48376;DHT22;34178;50.904;11.560;2023-01-28T08:14:00;1.50;99.90
48376;DHT22;34178;50.904;11.560;2023-01-28T08:16:26;1.60;99.90
48376;DHT22;34178;50.904;11.560;2023-01-28T08:18:53;1.60;99.90
48376;DHT22;34178;50.904;11.560;2023-01-28T08:21:18;1.60;99.90
48376;DHT22;34178;50.904;11.560;2023-01-28T08:23:44;1.70;99.90
48376;DHT22;34178;50.904;11.560;2023-01-28T08:26:10;1.70;99.90
48376;DHT22;34178;50.904;11.560;2023-01-28T08:28:35;1.70;99.90
48376;DHT22;34178;50.904;11.560;2023-01-28T08:31:01;1.70;99.90
48376;DHT22;34178;50.904;11.560;2023-01-28T08:33:27;1.60;99.90
48376;DHT22;34178;50.904;11.560;2023-01-28T08:35:53;1.60;99.90
48376;DHT22;34178;50.904;11.560;2023-01-28T08:38:18;1.70;99.90
48376;DHT22;34178;50.904;11.560;2023-01-28T08:40:45;1.70;99.90
48376;DHT22;34178;50.904;11.560;2023-01-28T08:43:11;1.70;99.90
48376;DHT22;34178;50.904;11.560;2023-01-28T08:45:39;1.70;99.90
48376;DHT22;34178;50.904;11.560;2023-01-28T08:48:06;1.70;99.90
48376;DHT22;34178;50.904;11.560;2023-01-28T08:50:35;1.70;99.90
48376;DHT22;34178;50.904;11.560;2023-01-28T09:00:47;1.70;99.90
48376;DHT22;34178;50.904;11.560;2023-01-28T09:08:24;1.80;99.90
48376;DHT22;34178;50.904;11.560;2023-01-28T09:10:54;1.80;99.90
48376;DHT22;34178;50.904;11.560;2023-01-28T09:15:56;1.90;99.90
48376;DHT22;34178;50.904;11.560;2023-01-28T09:18:22;2.00;99.90
48376;DHT22;34178;50.904;11.560;2023-01-28T09:20:47;2.00;99.90
48376;DHT22;34178;50.904;11.560;2023-01-28T09:25:48;1.90;99.90
48376;DHT22;34178;50.904;11.560;2023-01-28T09:28:14;1.90;99.90
48376;DHT22;34178;50.904;11.560;2023-01-28T09:30:40;1.90;99.90
48376;DHT22;34178;50.904;11.560;2023-01-28T09:40:52;2.00;99.90
48376;DHT22;34178;50.904;11.560;2023-01-28T10:09:54;1.90;99.90
48376;DHT22;34178;50.904;11.560;2023-01-28T10:25:30;1.80;99.90
48376;DHT22;34178;50.904;11.560;2023-01-28T10:27:57;1.90;99.90
48376;DHT22;34178;50.904;11.560;2023-01-28T10:30:25;2.00;99.90
48376;DHT22;34178;50.904;11.560;2023-01-28T10:32:52;2.00;99.90
48376;DHT22;34178;50.904;11.560;2023-01-28T10:51:52;2.20;99.90
48376;DHT22;34178;50.904;11.560;2023-01-28T10:57:01;2.10;99.90
48376;DHT22;34178;50.904;11.560;2023-01-28T10:59:29;2.10;99.90
48376;DHT22;34178;50.904;11.560;2023-01-28T11:02:04;2.20;99.90
48376;DHT22;34178;50.904;11.560;2023-01-28T11:10:35;1.90;99.90
48376;DHT22;34178;50.904;11.560;2023-01-28T11:13:04;2.10;99.90
48376;DHT22;34178;50.904;11.560;2023-01-28T11:15:30;2.00;99.90
48376;DHT22;34178;50.904;11.560;2023-01-28T11:18:02;1.80;99.90
48376;DHT22;34178;50.904;11.560;2023-01-28T11:20:40;1.80;99.90
48376;DHT22;34178;50.904;11.560;2023-01-28T11:30:56;2.40;99.90
48376;DHT22;34178;50.904;11.560;2023-01-28T11:55:44;2.10;99.90
48376;DHT22;34178;50.904;11.560;2023-01-28T11:58:44;2.20;99.90
48376;DHT22;34178;50.904;11.560;2023-01-28T12:01:54;2.40;99.90
48376;DHT22;34178;50.904;11.560;2023-01-28T15:48:15;1.40;99.90
48376;DHT22;34178;50.904;11.560;2023-01-28T15:50:42;1.30;99.90
48376;DHT22;34178;50.904;11.560;2023-01-28T15:53:12;1.30;99.90
48376;DHT22;34178;50.904;11.560;2023-01-28T15:55:45;1.40;99.90
48376;DHT22;34178;50.904;11.560;2023-01-28T15:58:30;1.40;99.90
48376;DHT22;34178;50.904;11.560;2023-01-28T16:16:50;1.00;99.90
48376;DHT22;34178;50.904;11.560;2023-01-28T16:19:40;0.90;99.90
48376;DHT22;34178;50.904;11.560;2023-01-28T16:22:07;0.90;99.90
48376;DHT22;34178;50.904;11.560;2023-01-28T16:53:04;0.60;99.90
48376;DHT22;34178;50.904;11.560;2023-01-28T16:55:30;0.60;99.90
48376;DHT22;34178;50.904;11.560;2023-01-28T16:57:56;0.60;99.90
48376;DHT22;34178;50.904;11.560;2023-01-28T17:00:24;0.60;99.90
48376;DHT22;34178;50.904;11.560;2023-01-28T17:02:51;0.40;99.90
48376;DHT22;34178;50.904;11.560;2023-01-28T17:05:18;0.30;99.90
48376;DHT22;34178;50.904;11.560;2023-01-28T17:07:46;0.30;99.90
48376;DHT22;34178;50.904;11.560;2023-01-28T17:10:16;0.20;99.90
48376;DHT22;34178;50.904;11.560;2023-01-28T17:12:43;0.20;99.90
48376;DHT22;34178;50.904;11.560;2023-01-28T17:30:41;0.10;99.90
48376;DHT22;34178;50.904;11.560;2023-01-28T19:10:55;-0.20;99.90
48376;DHT22;34178;50.904;11.560;2023-01-28T19:13:21;-0.10;99.90
48376;DHT22;34178;50.904;11.560;2023-01-28T19:15:46;-0.10;99.90
48376;DHT22;34178;50.904;11.560;2023-01-28T19:18:12;-0.20;99.90
48376;DHT22;34178;50.904;11.560;2023-01-28T19:20:38;-0.20;99.90
48376;DHT22;34178;50.904;11.560;2023-01-28T19:23:05;-0.20;99.90
48376;DHT22;34178;50.904;11.560;2023-01-28T19:25:34;-0.30;99.90
48376;DHT22;34178;50.904;11.560;2023-01-28T19:28:00;-0.30;99.90
48376;DHT22;34178;50.904;11.560;2023-01-28T19:30:25;-0.40;99.90
48376;DHT22;34178;50.904;11.560;2023-01-28T19:32:51;-0.30;99.90
48376;DHT22;34178;50.904;11.560;2023-01-28T19:35:19;-0.30;99.90
48376;DHT22;34178;50.904;11.560;2023-01-28T19:37:44;-0.40;99.90
48376;DHT22;34178;50.904;11.560;2023-01-28T19:40:12;-0.40;99.90
48376;DHT22;34178;50.904;11.560;2023-01-28T19:42:38;-0.30;99.90
48376;DHT22;34178;50.904;11.560;2023-01-28T19:45:04;-0.40;99.90
48376;DHT22;34178;50.904;11.560;2023-01-28T19:47:31;-0.40;99.90
48376;DHT22;34178;50.904;11.560;2023-01-28T19:49:57;-0.40;99.90
48376;DHT22;34178;50.904;11.560;2023-01-28T19:52:22;-0.50;99.90
48376;DHT22;34178;50.904;11.560;2023-01-28T19:54:48;-0.40;99.90
48376;DHT22;34178;50.904;11.560;2023-01-28T19:57:14;-0.60;99.90
48376;DHT22;34178;50.904;11.560;2023-01-28T19:59:39;-0.70;99.90
48376;DHT22;34178;50.904;11.560;2023-01-28T20:02:05;-0.70;99.90
48376;DHT22;34178;50.904;11.560;2023-01-28T20:04:31;-0.80;99.90
48376;DHT22;34178;50.904;11.560;2023-01-28T20:06:56;-0.70;99.90
48376;DHT22;34178;50.904;11.560;2023-01-28T20:09:22;-0.70;99.90
48376;DHT22;34178;50.904;11.560;2023-01-28T20:11:48;-0.70;99.90
48376;DHT22;34178;50.904;11.560;2023-01-28T20:14:14;-0.60;99.90
48376;DHT22;34178;50.904;11.560;2023-01-28T20:16:42;-0.60;99.90
48376;DHT22;34178;50.904;11.560;2023-01-28T20:19:13;-0.50;99.90
48376;DHT22;34178;50.904;11.560;2023-01-28T20:21:39;-0.50;99.90
48376;DHT22;34178;50.904;11.560;2023-01-28T20:24:05;-0.60;99.90
48376;DHT22;34178;50.904;11.560;2023-01-28T20:26:34;-0.70;99.90
48376;DHT22;34178;50.904;11.560;2023-01-28T20:29:09;-0.80;99.90
48376;DHT22;34178;50.904;11.560;2023-01-28T20:31:35;-0.70;99.90
48376;DHT22;34178;50.904;11.560;2023-01-28T20:34:02;-0.70;99.90
48376;DHT22;34178;50.904;11.560;2023-01-28T20:36:28;-0.80;99.90
48376;DHT22;34178;50.904;11.560;2023-01-28T20:38:53;-0.80;99.90
48376;DHT22;34178;50.904;11.560;2023-01-28T20:41:22;-0.80;99.90
48376;DHT22;34178;50.904;11.560;2023-01-28T20:43:49;-0.70;99.90
48376;DHT22;34178;50.904;11.560;2023-01-28T20:46:18;-0.70;99.90
48376;DHT22;34178;50.904;11.560;2023-01-28T20:48:44;-0.60;99.90
48376;DHT22;34178;50.904;11.560;2023-01-28T20:51:12;-0.70;99.90
48376;DHT22;34178;50.904;11.560;2023-01-28T20:53:39;-0.80;99.90
48376;DHT22;34178;50.904;11.560;2023-01-28T20:56:05;-0.80;99.90
48376;DHT22;34178;50.904;11.560;2023-01-28T20:58:31;-0.90;99.90
48376;DHT22;34178;50.904;11.560;2023-01-28T21:00:58;-0.90;99.90
48376;DHT22;34178;50.904;11.560;2023-01-28T21:03:25;-0.80;99.90
48376;DHT22;34178;50.904;11.560;2023-01-28T21:05:51;-0.70;99.90
48376;DHT22;34178;50.904;11.560;2023-01-28T21:08:17;-0.60;99.90
48376;DHT22;34178;50.904;11.560;2023-01-28T21:10:43;-0.50;99.90
48376;DHT22;34178;50.904;11.560;2023-01-28T21:13:10;-0.60;99.90
48376;DHT22;34178;50.904;11.560;2023-01-28T21:15:36;-0.60;99.90
48376;DHT22;34178;50.904;11.560;2023-01-28T21:18:02;-0.60;99.90
48376;DHT22;34178;50.904;11.560;2023-01-28T21:20:29;-0.50;99.90
48376;DHT22;34178;50.904;11.560;2023-01-28T21:22:55;-0.60;99.90
48376;DHT22;34178;50.904;11.560;2023-01-28T21:25:21;-0.70;99.90
48376;DHT22;34178;50.904;11.560;2023-01-28T21:27:47;-0.80;99.90
48376;DHT22;34178;50.904;11.560;2023-01-28T21:30:14;-0.90;99.90
48376;DHT22;34178;50.904;11.560;2023-01-28T21:32:40;-0.80;99.90
48376;DHT22;34178;50.904;11.560;2023-01-28T21:35:06;-0.70;99.90
48376;DHT22;34178;50.904;11.560;2023-01-28T21:37:32;-0.80;99.90
48376;DHT22;34178;50.904;11.560;2023-01-28T21:39:57;-0.90;99.90
48376;DHT22;34178;50.904;11.560;2023-01-28T21:42:23;-0.90;99.90
48376;DHT22;34178;50.904;11.560;2023-01-28T21:44:49;-0.80;99.90
48376;DHT22;34178;50.904;11.560;2023-01-28T21:47:15;-0.70;99.90
48376;DHT22;34178;50.904;11.560;2023-01-28T21:49:41;-0.60;99.90
48376;DHT22;34178;50.904;11.560;2023-01-28T21:52:06;-0.80;99.90
48376;DHT22;34178;50.904;11.560;2023-01-28T21:54:32;-1.00;99.90
48376;DHT22;34178;50.904;11.560;2023-01-28T21:56:59;-1.10;99.90
48376;DHT22;34178;50.904;11.560;2023-01-28T21:59:25;-1.10;99.90
48376;DHT22;34178;50.904;11.560;2023-01-28T22:02:10;-1.10;99.90
48376;DHT22;34178;50.904;11.560;2023-01-28T22:04:42;-0.90;99.90
48376;DHT22;34178;50.904;11.560;2023-01-28T22:07:10;-1.00;99.90
48376;DHT22;34178;50.904;11.560;2023-01-28T22:09:37;-1.00;99.90
48376;DHT22;34178;50.904;11.560;2023-01-28T22:12:04;-1.00;99.90
48376;DHT22;34178;50.904;11.560;2023-01-28T22:14:34;-1.00;99.90
48376;DHT22;34178;50.904;11.560;2023-01-28T22:17:00;-1.10;99.90
48376;DHT22;34178;50.904;11.560;2023-01-28T22:19:25;-1.10;99.90
48376;DHT22;34178;50.904;11.560;2023-01-28T22:21:51;-1.00;99.90
48376;DHT22;34178;50.904;11.560;2023-01-28T22:24:19;-0.90;99.90
48376;DHT22;34178;50.904;11.560;2023-01-28T22:26:47;-1.00;99.90
48376;DHT22;34178;50.904;11.560;2023-01-28T22:29:14;-1.00;99.90
48376;DHT22;34178;50.904;11.560;2023-01-28T22:31:40;-0.80;99.90
48376;DHT22;34178;50.904;11.560;2023-01-28T22:34:06;-0.90;99.90
48376;DHT22;34178;50.904;11.560;2023-01-28T22:36:33;-1.00;99.90
48376;DHT22;34178;50.904;11.560;2023-01-28T22:39:03;-1.10;99.90
48376;DHT22;34178;50.904;11.560;2023-01-28T22:41:29;-1.10;99.90
48376;DHT22;34178;50.904;11.560;2023-01-28T22:43:55;-1.10;99.90
48376;DHT22;34178;50.904;11.560;2023-01-28T22:46:22;-1.20;99.90
48376;DHT22;34178;50.904;11.560;2023-01-28T22:48:49;-1.40;99.90
48376;DHT22;34178;50.904;11.560;2023-01-28T22:51:20;-1.50;99.90
48376;DHT22;34178;50.904;11.560;2023-01-28T22:53:48;-1.50;99.90
48376;DHT22;34178;50.904;11.560;2023-01-28T22:56:15;-1.50;99.90
48376;DHT22;34178;50.904;11.560;2023-01-28T22:58:41;-1.50;99.90
48376;DHT22;34178;50.904;11.560;2023-01-28T23:01:07;-1.40;99.90
48376;DHT22;34178;50.904;11.560;2023-01-28T23:03:33;-1.40;99.90
48376;DHT22;34178;50.904;11.560;2023-01-28T23:06:01;-1.30;99.90
48376;DHT22;34178;50.904;11.560;2023-01-28T23:08:27;-1.30;99.90
48376;DHT22;34178;50.904;11.560;2023-01-28T23:10:54;-1.50;99.90
48376;DHT22;34178;50.904;11.560;2023-01-28T23:13:23;-1.50;99.90
48376;DHT22;34178;50.904;11.560;2023-01-28T23:15:49;-1.40;99.90
48376;DHT22;34178;50.904;11.560;2023-01-28T23:18:34;-1.30;99.90
48376;DHT22;34178;50.904;11.560;2023-01-28T23:21:24;-1.40;99.90
48376;DHT22;34178;50.904;11.560;2023-01-28T23:24:19;-1.40;99.90
48376;DHT22;34178;50.904;11.560;2023-01-28T23:26:59;-1.40;99.90
48376;DHT22;34178;50.904;11.560;2023-01-28T23:29:28;-1.40;99.90
48376;DHT22;34178;50.904;11.560;2023-01-28T23:32:00;-1.30;99.90
48376;DHT22;34178;50.904;11.560;2023-01-28T23:34:31;-1.40;99.90
48376;DHT22;34178;50.904;11.560;2023-01-28T23:36:59;-1.50;99.90
48376;DHT22;34178;50.904;11.560;2023-01-28T23:39:25;-1.50;99.90
48376;DHT22;34178;50.904;11.560;2023-01-28T23:41:50;-1.60;99.90
48376;DHT22;34178;50.904;11.560;2023-01-28T23:44:16;-1.70;99.90
48376;DHT22;34178;50.904;11.560;2023-01-28T23:46:42;-1.60;99.90
48376;DHT22;34178;50.904;11.560;2023-01-28T23:49:08;-1.60;99.90
48376;DHT22;34178;50.904;11.560;2023-01-28T23:51:34;-1.60;99.90
48376;DHT22;34178;50.904;11.560;2023-01-28T23:54:00;-1.60;99.90
48376;DHT22;34178;50.904;11.560;2023-01-28T23:56:25;-1.60;99.90
48376;DHT22;34178;50.904;11.560;2023-01-28T23:58:51;-1.80;99.90
